sensor_id;sensor_type;location;lat;lon;timestamp;pressure;altitude;pressure_sealevel;temperature
19568;BMP280;9930;49.240;8.548;2023-04-03T00:00:57;101447.94;;;9.56
19568;BMP280;9930;49.240;8.548;2023-04-03T00:03:25;101440.84;;;9.51
19568;BMP280;9930;49.240;8.548;2023-04-03T00:05:51;101440.38;;;9.43
19568;BMP280;9930;49.240;8.548;2023-04-03T00:08:19;101426.06;;;9.30
19568;BMP280;9930;49.240;8.548;2023-04-03T00:10:48;101409.47;;;9.22
19568;BMP280;9930;49.240;8.548;2023-04-03T00:13:16;101432.63;;;9.27
19568;BMP280;9930;49.240;8.548;2023-04-03T00:15:42;101435.00;;;9.24
19568;BMP280;9930;49.240;8.548;2023-04-03T00:18:10;101420.84;;;9.14
19568;BMP280;9930;49.240;8.548;2023-04-03T00:20:39;101434.72;;;9.19
19568;BMP280;9930;49.240;8.548;2023-04-03T00:23:05;101432.59;;;9.12
19568;BMP280;9930;49.240;8.548;2023-04-03T00:25:32;101435.84;;;9.09
19568;BMP280;9930;49.240;8.548;2023-04-03T00:27:58;101430.31;;;9.02
19568;BMP280;9930;49.240;8.548;2023-04-03T00:30:26;101423.78;;;8.92
19568;BMP280;9930;49.240;8.548;2023-04-03T00:32:54;101427.38;;;8.96
19568;BMP280;9930;49.240;8.548;2023-04-03T00:35:21;101436.69;;;8.95
19568;BMP280;9930;49.240;8.548;2023-04-03T00:37:51;101439.75;;;8.90
19568;BMP280;9930;49.240;8.548;2023-04-03T00:40:20;101433.13;;;8.79
19568;BMP280;9930;49.240;8.548;2023-04-03T00:42:49;101437.44;;;8.80
19568;BMP280;9930;49.240;8.548;2023-04-03T00:45:47;101451.81;;;8.79
19568;BMP280;9930;49.240;8.548;2023-04-03T00:48:32;101443.53;;;8.68
19568;BMP280;9930;49.240;8.548;2023-04-03T00:51:04;101443.63;;;8.70
19568;BMP280;9930;49.240;8.548;2023-04-03T00:53:37;101448.59;;;8.68
19568;BMP280;9930;49.240;8.548;2023-04-03T00:56:11;101441.75;;;8.67
19568;BMP280;9930;49.240;8.548;2023-04-03T00:58:46;101441.56;;;8.64
19568;BMP280;9930;49.240;8.548;2023-04-03T01:01:19;101437.38;;;8.65
19568;BMP280;9930;49.240;8.548;2023-04-03T01:03:48;101441.56;;;8.64
19568;BMP280;9930;49.240;8.548;2023-04-03T01:06:17;101421.53;;;8.56
19568;BMP280;9930;49.240;8.548;2023-04-03T01:08:47;101432.69;;;8.58
19568;BMP280;9930;49.240;8.548;2023-04-03T01:11:14;101400.94;;;8.38
19568;BMP280;9930;49.240;8.548;2023-04-03T01:13:39;101429.84;;;8.53
19568;BMP280;9930;49.240;8.548;2023-04-03T01:16:07;101433.88;;;8.50
19568;BMP280;9930;49.240;8.548;2023-04-03T01:18:39;101437.88;;;8.46
19568;BMP280;9930;49.240;8.548;2023-04-03T01:21:28;101437.00;;;8.46
19568;BMP280;9930;49.240;8.548;2023-04-03T01:24:11;101448.84;;;8.45
19568;BMP280;9930;49.240;8.548;2023-04-03T01:26:40;101432.41;;;8.40
19568;BMP280;9930;49.240;8.548;2023-04-03T01:29:06;101423.22;;;8.29
19568;BMP280;9930;49.240;8.548;2023-04-03T01:34:16;101445.63;;;8.34
19568;BMP280;9930;49.240;8.548;2023-04-03T01:36:44;101439.44;;;8.31
19568;BMP280;9930;49.240;8.548;2023-04-03T01:39:12;101441.19;;;8.32
19568;BMP280;9930;49.240;8.548;2023-04-03T01:41:38;101424.28;;;8.19
19568;BMP280;9930;49.240;8.548;2023-04-03T01:44:05;101447.06;;;8.31
19568;BMP280;9930;49.240;8.548;2023-04-03T01:46:35;101440.81;;;8.26
19568;BMP280;9930;49.240;8.548;2023-04-03T01:49:08;101435.53;;;8.23
19568;BMP280;9930;49.240;8.548;2023-04-03T01:51:35;101436.31;;;8.22
19568;BMP280;9930;49.240;8.548;2023-04-03T01:54:04;101443.44;;;8.27
19568;BMP280;9930;49.240;8.548;2023-04-03T01:56:29;101457.47;;;8.34
19568;BMP280;9930;49.240;8.548;2023-04-03T01:58:57;101448.44;;;8.26
19568;BMP280;9930;49.240;8.548;2023-04-03T02:01:23;101453.91;;;8.32
19568;BMP280;9930;49.240;8.548;2023-04-03T02:03:52;101459.13;;;8.33
19568;BMP280;9930;49.240;8.548;2023-04-03T02:06:17;101438.38;;;8.27
19568;BMP280;9930;49.240;8.548;2023-04-03T02:08:43;101460.19;;;8.37
19568;BMP280;9930;49.240;8.548;2023-04-03T02:11:09;101462.84;;;8.38
19568;BMP280;9930;49.240;8.548;2023-04-03T02:13:38;101467.81;;;8.37
19568;BMP280;9930;49.240;8.548;2023-04-03T02:16:09;101445.31;;;8.30
19568;BMP280;9930;49.240;8.548;2023-04-03T02:18:40;101464.59;;;8.39
19568;BMP280;9930;49.240;8.548;2023-04-03T02:21:06;101459.41;;;8.38
19568;BMP280;9930;49.240;8.548;2023-04-03T02:23:33;101441.44;;;8.35
19568;BMP280;9930;49.240;8.548;2023-04-03T02:26:12;101446.50;;;8.35
19568;BMP280;9930;49.240;8.548;2023-04-03T02:28:41;101445.91;;;8.39
19568;BMP280;9930;49.240;8.548;2023-04-03T02:31:10;101442.88;;;8.44
19568;BMP280;9930;49.240;8.548;2023-04-03T02:33:36;101448.84;;;8.45
19568;BMP280;9930;49.240;8.548;2023-04-03T02:36:09;101447.19;;;8.46
19568;BMP280;9930;49.240;8.548;2023-04-03T02:38:36;101437.59;;;8.41
19568;BMP280;9930;49.240;8.548;2023-04-03T02:41:08;101430.84;;;8.42
19568;BMP280;9930;49.240;8.548;2023-04-03T02:43:37;101446.50;;;8.48
19568;BMP280;9930;49.240;8.548;2023-04-03T02:46:03;101438.38;;;8.40
19568;BMP280;9930;49.240;8.548;2023-04-03T02:48:33;101449.03;;;8.48
19568;BMP280;9930;49.240;8.548;2023-04-03T02:50:59;101445.44;;;8.44
19568;BMP280;9930;49.240;8.548;2023-04-03T02:53:27;101445.44;;;8.44
19568;BMP280;9930;49.240;8.548;2023-04-03T02:55:53;101437.78;;;8.44
19568;BMP280;9930;49.240;8.548;2023-04-03T02:58:21;101440.25;;;8.43
19568;BMP280;9930;49.240;8.548;2023-04-03T03:00:49;101436.22;;;8.47
19568;BMP280;9930;49.240;8.548;2023-04-03T03:03:15;101431.63;;;8.41
19568;BMP280;9930;49.240;8.548;2023-04-03T03:05:43;101438.88;;;8.48
19568;BMP280;9930;49.240;8.548;2023-04-03T03:08:13;101430.94;;;8.43
19568;BMP280;9930;49.240;8.548;2023-04-03T03:10:39;101432.03;;;8.47
19568;BMP280;9930;49.240;8.548;2023-04-03T03:13:10;101439.75;;;8.49
19568;BMP280;9930;49.240;8.548;2023-04-03T03:15:37;101439.75;;;8.49
19568;BMP280;9930;49.240;8.548;2023-04-03T03:18:07;101428.31;;;8.42
19568;BMP280;9930;49.240;8.548;2023-04-03T03:20:38;101432.72;;;8.44
19568;BMP280;9930;49.240;8.548;2023-04-03T03:23:08;101444.03;;;8.50
19568;BMP280;9930;49.240;8.548;2023-04-03T03:25:41;101441.41;;;8.48
19568;BMP280;9930;49.240;8.548;2023-04-03T03:28:08;101433.31;;;8.40
19568;BMP280;9930;49.240;8.548;2023-04-03T03:30:34;101453.06;;;8.44
19568;BMP280;9930;49.240;8.548;2023-04-03T03:33:03;101433.13;;;8.37
19568;BMP280;9930;49.240;8.548;2023-04-03T03:35:29;101449.81;;;8.47
19568;BMP280;9930;49.240;8.548;2023-04-03T03:37:57;101445.72;;;8.49
19568;BMP280;9930;49.240;8.548;2023-04-03T03:40:25;101450.00;;;8.50
19568;BMP280;9930;49.240;8.548;2023-04-03T03:42:51;101445.81;;;8.51
19568;BMP280;9930;49.240;8.548;2023-04-03T03:45:17;101432.72;;;8.44
19568;BMP280;9930;49.240;8.548;2023-04-03T03:47:42;101436.22;;;8.47
19568;BMP280;9930;49.240;8.548;2023-04-03T03:50:09;101446.69;;;8.51
19568;BMP280;9930;49.240;8.548;2023-04-03T03:52:35;101445.72;;;8.49
19568;BMP280;9930;49.240;8.548;2023-04-03T03:55:04;101444.84;;;8.49
19568;BMP280;9930;49.240;8.548;2023-04-03T03:57:36;101454.13;;;8.48
19568;BMP280;9930;49.240;8.548;2023-04-03T04:00:07;101450.59;;;8.46
19568;BMP280;9930;49.240;8.548;2023-04-03T04:02:36;101450.31;;;8.41
19568;BMP280;9930;49.240;8.548;2023-04-03T04:05:03;101459.69;;;8.42
19568;BMP280;9930;49.240;8.548;2023-04-03T04:07:34;101460.19;;;8.37
19568;BMP280;9930;49.240;8.548;2023-04-03T04:10:00;101463.31;;;8.33
19568;BMP280;9930;49.240;8.548;2023-04-03T04:12:29;101448.16;;;8.21
19568;BMP280;9930;49.240;8.548;2023-04-03T04:14:54;101469.56;;;8.25
19568;BMP280;9930;49.240;8.548;2023-04-03T04:17:21;101465.16;;;8.22
19568;BMP280;9930;49.240;8.548;2023-04-03T04:19:47;101469.16;;;8.19
19568;BMP280;9930;49.240;8.548;2023-04-03T04:22:13;101467.31;;;8.16
19568;BMP280;9930;49.240;8.548;2023-04-03T04:24:41;101454.00;;;8.07
19568;BMP280;9930;49.240;8.548;2023-04-03T04:27:08;101471.22;;;8.11
19568;BMP280;9930;49.240;8.548;2023-04-03T04:29:34;101473.16;;;8.02
19568;BMP280;9930;49.240;8.548;2023-04-03T04:32:04;101463.59;;;7.98
19568;BMP280;9930;49.240;8.548;2023-04-03T04:34:30;101471.19;;;7.98
19568;BMP280;9930;49.240;8.548;2023-04-03T04:36:56;101477.84;;;7.96
19568;BMP280;9930;49.240;8.548;2023-04-03T04:39:24;101455.94;;;7.85
19568;BMP280;9930;49.240;8.548;2023-04-03T04:41:50;101467.66;;;7.83
19568;BMP280;9930;49.240;8.548;2023-04-03T04:44:21;101460.63;;;7.78
19568;BMP280;9930;49.240;8.548;2023-04-03T04:46:49;101470.09;;;7.81
19568;BMP280;9930;49.240;8.548;2023-04-03T04:49:15;101477.72;;;7.81
19568;BMP280;9930;49.240;8.548;2023-04-03T04:51:40;101468.84;;;7.74
19568;BMP280;9930;49.240;8.548;2023-04-03T04:54:06;101469.09;;;7.66
19568;BMP280;9930;49.240;8.548;2023-04-03T04:56:34;101481.13;;;7.68
19568;BMP280;9930;49.240;8.548;2023-04-03T04:59:02;101480.81;;;7.64
19568;BMP280;9930;49.240;8.548;2023-04-03T05:01:33;101481.09;;;7.55
19568;BMP280;9930;49.240;8.548;2023-04-03T05:04:01;101485.28;;;7.55
19568;BMP280;9930;49.240;8.548;2023-04-03T05:06:27;101487.50;;;7.50
19568;BMP280;9930;49.240;8.548;2023-04-03T05:08:53;101495.81;;;7.47
19568;BMP280;9930;49.240;8.548;2023-04-03T05:11:18;101498.03;;;7.43
19568;BMP280;9930;49.240;8.548;2023-04-03T05:13:44;101497.06;;;7.41
19568;BMP280;9930;49.240;8.548;2023-04-03T05:16:12;101491.00;;;7.39
19568;BMP280;9930;49.240;8.548;2023-04-03T05:18:40;101485.41;;;7.31
19568;BMP280;9930;49.240;8.548;2023-04-03T05:21:05;101487.06;;;7.31
19568;BMP280;9930;49.240;8.548;2023-04-03T05:23:34;101502.03;;;7.39
19568;BMP280;9930;49.240;8.548;2023-04-03T05:26:02;101504.56;;;7.39
19568;BMP280;9930;49.240;8.548;2023-04-03T05:28:29;101509.66;;;7.39
19568;BMP280;9930;49.240;8.548;2023-04-03T05:30:59;101511.41;;;7.40
19568;BMP280;9930;49.240;8.548;2023-04-03T05:33:25;101505.44;;;7.40
19568;BMP280;9930;49.240;8.548;2023-04-03T05:35:54;101513.16;;;7.41
19568;BMP280;9930;49.240;8.548;2023-04-03T05:38:20;101512.06;;;7.38
19568;BMP280;9930;49.240;8.548;2023-04-03T05:40:48;101519.78;;;7.39
19568;BMP280;9930;49.240;8.548;2023-04-03T05:43:16;101516.38;;;7.39
19568;BMP280;9930;49.240;8.548;2023-04-03T05:45:46;101510.88;;;7.33
19568;BMP280;9930;49.240;8.548;2023-04-03T05:48:12;101523.09;;;7.38
19568;BMP280;9930;49.240;8.548;2023-04-03T05:50:38;101510.00;;;7.32
19568;BMP280;9930;49.240;8.548;2023-04-03T05:53:19;101528.38;;;7.41
19568;BMP280;9930;49.240;8.548;2023-04-03T05:55:48;101521.34;;;7.37
19568;BMP280;9930;49.240;8.548;2023-04-03T05:58:14;101503.94;;;7.30
19568;BMP280;9930;49.240;8.548;2023-04-03T06:00:40;101529.78;;;7.50
19568;BMP280;9930;49.240;8.548;2023-04-03T06:03:08;101525.91;;;7.55
19568;BMP280;9930;49.240;8.548;2023-04-03T06:05:37;101511.34;;;7.52
19568;BMP280;9930;49.240;8.548;2023-04-03T06:08:05;101520.16;;;7.57
19568;BMP280;9930;49.240;8.548;2023-04-03T06:10:31;101528.28;;;7.65
19568;BMP280;9930;49.240;8.548;2023-04-03T06:12:58;101517.16;;;7.63
19568;BMP280;9930;49.240;8.548;2023-04-03T06:15:28;101518.13;;;7.65
19568;BMP280;9930;49.240;8.548;2023-04-03T06:17:54;101529.97;;;7.77
19568;BMP280;9930;49.240;8.548;2023-04-03T06:20:20;101534.38;;;7.80
19568;BMP280;9930;49.240;8.548;2023-04-03T06:22:49;101536.25;;;7.83
19568;BMP280;9930;49.240;8.548;2023-04-03T06:25:16;101517.28;;;7.77
19568;BMP280;9930;49.240;8.548;2023-04-03T06:27:44;101529.81;;;7.88
19568;BMP280;9930;49.240;8.548;2023-04-03T06:30:13;101526.59;;;7.90
19568;BMP280;9930;49.240;8.548;2023-04-03T06:32:42;101519.66;;;7.88
19568;BMP280;9930;49.240;8.548;2023-04-03T06:35:08;101526.31;;;7.99
19568;BMP280;9930;49.240;8.548;2023-04-03T06:37:36;101516.47;;;8.03
19568;BMP280;9930;49.240;8.548;2023-04-03T06:40:09;101518.44;;;8.21
19568;BMP280;9930;49.240;8.548;2023-04-03T06:42:36;101526.09;;;8.47
19568;BMP280;9930;49.240;8.548;2023-04-03T06:45:04;101527.66;;;8.71
19568;BMP280;9930;49.240;8.548;2023-04-03T06:47:30;101515.09;;;8.88
19568;BMP280;9930;49.240;8.548;2023-04-03T06:49:58;101534.00;;;9.19
19568;BMP280;9930;49.240;8.548;2023-04-03T06:52:24;101523.97;;;9.35
19568;BMP280;9930;49.240;8.548;2023-04-03T06:54:51;101517.84;;;9.47
19568;BMP280;9930;49.240;8.548;2023-04-03T06:57:22;101534.91;;;9.62
19568;BMP280;9930;49.240;8.548;2023-04-03T06:59:48;101532.81;;;9.70
19568;BMP280;9930;49.240;8.548;2023-04-03T07:02:16;101530.38;;;9.71
19568;BMP280;9930;49.240;8.548;2023-04-03T07:04:44;101538.81;;;9.85
19568;BMP280;9930;49.240;8.548;2023-04-03T07:07:12;101539.88;;;9.89
19568;BMP280;9930;49.240;8.548;2023-04-03T07:09:37;101540.94;;;9.92
19568;BMP280;9930;49.240;8.548;2023-04-03T07:12:03;101548.13;;;9.99
19568;BMP280;9930;49.240;8.548;2023-04-03T07:14:29;101543.91;;;10.00
19568;BMP280;9930;49.240;8.548;2023-04-03T07:16:57;101541.09;;;9.95
19568;BMP280;9930;49.240;8.548;2023-04-03T07:19:22;101544.00;;;10.01
19568;BMP280;9930;49.240;8.548;2023-04-03T07:21:53;101548.59;;;10.07
19568;BMP280;9930;49.240;8.548;2023-04-03T07:24:19;101556.59;;;10.13
19568;BMP280;9930;49.240;8.548;2023-04-03T07:26:50;101556.84;;;10.18
19568;BMP280;9930;49.240;8.548;2023-04-03T07:29:16;101561.59;;;10.12
19568;BMP280;9930;49.240;8.548;2023-04-03T07:31:44;101558.59;;;10.19
19568;BMP280;9930;49.240;8.548;2023-04-03T07:34:11;101546.13;;;10.09
19568;BMP280;9930;49.240;8.548;2023-04-03T07:36:36;101561.78;;;10.15
19568;BMP280;9930;49.240;8.548;2023-04-03T07:39:04;101560.88;;;10.14
19568;BMP280;9930;49.240;8.548;2023-04-03T07:41:32;101557.72;;;10.18
19568;BMP280;9930;49.240;8.548;2023-04-03T07:43:58;101553.25;;;10.14
19568;BMP280;9930;49.240;8.548;2023-04-03T07:46:26;101555.66;;;10.26
19568;BMP280;9930;49.240;8.548;2023-04-03T07:48:52;101569.63;;;10.32
19568;BMP280;9930;49.240;8.548;2023-04-03T07:51:18;101561.00;;;10.30
19568;BMP280;9930;49.240;8.548;2023-04-03T07:53:44;101575.78;;;10.36
19568;BMP280;9930;49.240;8.548;2023-04-03T07:56:11;101571.66;;;10.38
19568;BMP280;9930;49.240;8.548;2023-04-03T07:58:37;101565.88;;;10.42
19568;BMP280;9930;49.240;8.548;2023-04-03T08:01:04;101573.47;;;10.41
19568;BMP280;9930;49.240;8.548;2023-04-03T08:03:35;101573.72;;;10.45
19568;BMP280;9930;49.240;8.548;2023-04-03T08:06:10;101573.97;;;10.50
19568;BMP280;9930;49.240;8.548;2023-04-03T08:08:42;101571.69;;;10.54
19568;BMP280;9930;49.240;8.548;2023-04-03T08:11:10;101584.63;;;10.57
19568;BMP280;9930;49.240;8.548;2023-04-03T08:13:37;101562.81;;;10.48
19568;BMP280;9930;49.240;8.548;2023-04-03T08:16:20;101574.84;;;10.65
19568;BMP280;9930;49.240;8.548;2023-04-03T08:18:48;101573.50;;;10.71
19568;BMP280;9930;49.240;8.548;2023-04-03T08:21:14;101562.59;;;10.74
19568;BMP280;9930;49.240;8.548;2023-04-03T08:23:43;101573.38;;;10.85
19568;BMP280;9930;49.240;8.548;2023-04-03T08:26:12;101569.50;;;10.91
19568;BMP280;9930;49.240;8.548;2023-04-03T08:28:38;101555.13;;;10.93
19568;BMP280;9930;49.240;8.548;2023-04-03T08:31:16;101557.31;;;11.02
19568;BMP280;9930;49.240;8.548;2023-04-03T08:33:42;101563.88;;;11.13
19568;BMP280;9930;49.240;8.548;2023-04-03T08:36:20;101565.78;;;11.17
19568;BMP280;9930;49.240;8.548;2023-04-03T08:38:48;101565.88;;;11.19
19568;BMP280;9930;49.240;8.548;2023-04-03T08:41:45;101568.19;;;11.14
19568;BMP280;9930;49.240;8.548;2023-04-03T08:44:26;101570.41;;;11.08
19568;BMP280;9930;49.240;8.548;2023-04-03T08:47:22;101570.25;;;11.05
19568;BMP280;9930;49.240;8.548;2023-04-03T08:49:59;101570.88;;;11.01
19568;BMP280;9930;49.240;8.548;2023-04-03T08:52:42;101571.66;;;11.00
19568;BMP280;9930;49.240;8.548;2023-04-03T08:55:42;101571.66;;;11.00
19568;BMP280;9930;49.240;8.548;2023-04-03T08:58:26;101561.75;;;10.90
19568;BMP280;9930;49.240;8.548;2023-04-03T09:01:17;101563.69;;;10.94
19568;BMP280;9930;49.240;8.548;2023-04-03T09:03:44;101579.56;;;11.04
19568;BMP280;9930;49.240;8.548;2023-04-03T09:09:15;101571.31;;;11.25
19568;BMP280;9930;49.240;8.548;2023-04-03T09:25:58;101549.72;;;12.01
19568;BMP280;9930;49.240;8.548;2023-04-03T09:28:26;101557.38;;;12.17
19568;BMP280;9930;49.240;8.548;2023-04-03T09:30:52;101559.38;;;12.41
19568;BMP280;9930;49.240;8.548;2023-04-03T09:33:19;101565.94;;;12.53
19568;BMP280;9930;49.240;8.548;2023-04-03T09:35:48;101566.16;;;12.58
19568;BMP280;9930;49.240;8.548;2023-04-03T09:38:20;101563.97;;;12.65
19568;BMP280;9930;49.240;8.548;2023-04-03T09:41:06;101549.78;;;12.72
19568;BMP280;9930;49.240;8.548;2023-04-03T09:43:56;101548.66;;;12.85
19568;BMP280;9930;49.240;8.548;2023-04-03T09:46:29;101551.28;;;13.04
19568;BMP280;9930;49.240;8.548;2023-04-03T09:49:00;101542.09;;;13.09
19568;BMP280;9930;49.240;8.548;2023-04-03T09:51:28;101540.56;;;13.13
19568;BMP280;9930;49.240;8.548;2023-04-03T09:53:57;101545.41;;;13.24
19568;BMP280;9930;49.240;8.548;2023-04-03T09:56:28;101563.53;;;13.29
19568;BMP280;9930;49.240;8.548;2023-04-03T10:01:35;101543.38;;;13.17
19568;BMP280;9930;49.240;8.548;2023-04-03T10:04:16;101554.56;;;13.19
19568;BMP280;9930;49.240;8.548;2023-04-03T10:06:55;101545.19;;;13.20
19568;BMP280;9930;49.240;8.548;2023-04-03T10:09:22;101545.06;;;13.17
19568;BMP280;9930;49.240;8.548;2023-04-03T10:12:06;101547.88;;;13.23
19568;BMP280;9930;49.240;8.548;2023-04-03T10:14:53;101546.06;;;13.20
19568;BMP280;9930;49.240;8.548;2023-04-03T10:17:54;101546.00;;;13.19
19568;BMP280;9930;49.240;8.548;2023-04-03T10:20:39;101563.00;;;13.17
19568;BMP280;9930;49.240;8.548;2023-04-03T10:23:29;101539.94;;;13.17
19568;BMP280;9930;49.240;8.548;2023-04-03T10:26:14;101541.69;;;13.18
19568;BMP280;9930;49.240;8.548;2023-04-03T10:31:48;101542.25;;;13.12
19568;BMP280;9930;49.240;8.548;2023-04-03T10:34:31;101543.28;;;13.16
19568;BMP280;9930;49.240;8.548;2023-04-03T10:37:20;101542.03;;;13.25
19568;BMP280;9930;49.240;8.548;2023-04-03T10:40:02;101539.88;;;13.35
19568;BMP280;9930;49.240;8.548;2023-04-03T10:45:26;101548.78;;;13.43
19568;BMP280;9930;49.240;8.548;2023-04-03T10:51:01;101544.94;;;13.33
19568;BMP280;9930;49.240;8.548;2023-04-03T10:54:11;101549.38;;;13.37
19568;BMP280;9930;49.240;8.548;2023-04-03T10:56:44;101537.19;;;13.32
19568;BMP280;9930;49.240;8.548;2023-04-03T10:59:26;101550.00;;;13.32
19568;BMP280;9930;49.240;8.548;2023-04-03T11:02:01;101554.16;;;13.29
19568;BMP280;9930;49.240;8.548;2023-04-03T11:04:34;101549.31;;;13.36
19568;BMP280;9930;49.240;8.548;2023-04-03T11:09:46;101530.44;;;13.34
19568;BMP280;9930;49.240;8.548;2023-04-03T11:12:58;101528.81;;;13.36
19568;BMP280;9930;49.240;8.548;2023-04-03T11:15:30;101522.19;;;13.41
19568;BMP280;9930;49.240;8.548;2023-04-03T11:18:15;101549.44;;;13.39
19568;BMP280;9930;49.240;8.548;2023-04-03T11:21:10;101518.63;;;13.18
19568;BMP280;9930;49.240;8.548;2023-04-03T11:23:40;101524.31;;;13.12
19568;BMP280;9930;49.240;8.548;2023-04-03T11:26:19;101519.06;;;13.09
19568;BMP280;9930;49.240;8.548;2023-04-03T11:28:57;101521.03;;;13.15
19568;BMP280;9930;49.240;8.548;2023-04-03T11:34:44;101519.44;;;12.99
19568;BMP280;9930;49.240;8.548;2023-04-03T11:37:39;101522.88;;;13.00
19568;BMP280;9930;49.240;8.548;2023-04-03T11:42:46;101530.72;;;13.03
19568;BMP280;9930;49.240;8.548;2023-04-03T11:45:31;101539.41;;;13.06
19568;BMP280;9930;49.240;8.548;2023-04-03T11:48:05;101543.00;;;13.10
19568;BMP280;9930;49.240;8.548;2023-04-03T11:58:25;101527.38;;;13.23
19568;BMP280;9930;49.240;8.548;2023-04-03T12:16:32;101511.31;;;13.08
19568;BMP280;9930;49.240;8.548;2023-04-03T12:30:14;101500.38;;;13.12
19568;BMP280;9930;49.240;8.548;2023-04-03T12:41:44;101505.34;;;13.26
19568;BMP280;9930;49.240;8.548;2023-04-03T12:44:37;101494.22;;;13.26
19568;BMP280;9930;49.240;8.548;2023-04-03T12:47:30;101485.59;;;13.24
19568;BMP280;9930;49.240;8.548;2023-04-03T12:50:03;101479.31;;;13.17
19568;BMP280;9930;49.240;8.548;2023-04-03T12:52:42;101486.75;;;13.31
19568;BMP280;9930;49.240;8.548;2023-04-03T12:55:19;101485.44;;;13.40
19568;BMP280;9930;49.240;8.548;2023-04-03T12:57:46;101473.56;;;13.42
19568;BMP280;9930;49.240;8.548;2023-04-03T13:00:34;101484.09;;;13.48
19568;BMP280;9930;49.240;8.548;2023-04-03T13:03:06;101476.19;;;13.44
19568;BMP280;9930;49.240;8.548;2023-04-03T13:05:45;101480.03;;;13.53
19568;BMP280;9930;49.240;8.548;2023-04-03T13:08:16;101477.81;;;13.61
19568;BMP280;9930;49.240;8.548;2023-04-03T13:11:10;101469.28;;;13.62
19568;BMP280;9930;49.240;8.548;2023-04-03T13:13:37;101465.91;;;13.63
19568;BMP280;9930;49.240;8.548;2023-04-03T13:16:10;101478.06;;;13.67
19568;BMP280;9930;49.240;8.548;2023-04-03T13:18:37;101479.56;;;13.62
19568;BMP280;9930;49.240;8.548;2023-04-03T13:21:28;101483.88;;;13.63
19568;BMP280;9930;49.240;8.548;2023-04-03T13:24:01;101463.53;;;13.47
19568;BMP280;9930;49.240;8.548;2023-04-03T13:26:33;101466.97;;;13.47
19568;BMP280;9930;49.240;8.548;2023-04-03T13:29:07;101474.03;;;13.53
19568;BMP280;9930;49.240;8.548;2023-04-03T13:31:37;101477.47;;;13.53
19568;BMP280;9930;49.240;8.548;2023-04-03T13:34:11;101484.47;;;13.57
19568;BMP280;9930;49.240;8.548;2023-04-03T13:36:45;101473.47;;;13.60
19568;BMP280;9930;49.240;8.548;2023-04-03T13:41:46;101470.63;;;13.73
19568;BMP280;9930;49.240;8.548;2023-04-03T13:55:01;101463.31;;;13.82
19568;BMP280;9930;49.240;8.548;2023-04-03T13:57:31;101469.50;;;13.87
19568;BMP280;9930;49.240;8.548;2023-04-03T13:59:59;101472.00;;;13.86
19568;BMP280;9930;49.240;8.548;2023-04-03T14:02:35;101462.25;;;13.77
19568;BMP280;9930;49.240;8.548;2023-04-03T14:05:05;101465.63;;;13.76
19568;BMP280;9930;49.240;8.548;2023-04-03T14:07:35;101465.16;;;13.66
19568;BMP280;9930;49.240;8.548;2023-04-03T14:10:03;101464.53;;;13.50
19568;BMP280;9930;49.240;8.548;2023-04-03T14:12:38;101456.94;;;13.33
19568;BMP280;9930;49.240;8.548;2023-04-03T14:15:23;101446.81;;;13.16
19568;BMP280;9930;49.240;8.548;2023-04-03T14:17:51;101461.53;;;13.20
19568;BMP280;9930;49.240;8.548;2023-04-03T14:20:20;101464.22;;;13.23
19568;BMP280;9930;49.240;8.548;2023-04-03T14:22:50;101453.34;;;13.29
19568;BMP280;9930;49.240;8.548;2023-04-03T14:25:24;101447.63;;;13.35
19568;BMP280;9930;49.240;8.548;2023-04-03T14:27:53;101445.38;;;13.42
19568;BMP280;9930;49.240;8.548;2023-04-03T14:30:29;101433.84;;;13.52
19568;BMP280;9930;49.240;8.548;2023-04-03T14:32:58;101429.28;;;13.66
19568;BMP280;9930;49.240;8.548;2023-04-03T14:35:31;101427.28;;;13.79
19568;BMP280;9930;49.240;8.548;2023-04-03T14:37:57;101435.97;;;13.83
19568;BMP280;9930;49.240;8.548;2023-04-03T14:40:26;101425.41;;;13.96
19568;BMP280;9930;49.240;8.548;2023-04-03T14:42:53;101428.97;;;14.00
19568;BMP280;9930;49.240;8.548;2023-04-03T14:45:22;101409.81;;;13.91
19568;BMP280;9930;49.240;8.548;2023-04-03T14:47:54;101412.94;;;13.84
19568;BMP280;9930;49.240;8.548;2023-04-03T14:50:24;101435.03;;;13.81
19568;BMP280;9930;49.240;8.548;2023-04-03T14:52:54;101419.09;;;13.67
19568;BMP280;9930;49.240;8.548;2023-04-03T14:55:24;101425.28;;;13.72
19568;BMP280;9930;49.240;8.548;2023-04-03T14:57:55;101425.97;;;13.68
19568;BMP280;9930;49.240;8.548;2023-04-03T15:00:23;101424.22;;;13.67
19568;BMP280;9930;49.240;8.548;2023-04-03T15:02:50;101413.97;;;13.67
19568;BMP280;9930;49.240;8.548;2023-04-03T15:05:16;101413.22;;;13.70
19568;BMP280;9930;49.240;8.548;2023-04-03T15:07:55;101409.03;;;13.72
19568;BMP280;9930;49.240;8.548;2023-04-03T15:10:24;101413.22;;;13.70
19568;BMP280;9930;49.240;8.548;2023-04-03T15:12:51;101396.75;;;13.65
19568;BMP280;9930;49.240;8.548;2023-04-03T15:15:24;101410.72;;;13.71
19568;BMP280;9930;49.240;8.548;2023-04-03T15:17:54;101401.13;;;13.67
19568;BMP280;9930;49.240;8.548;2023-04-03T15:20:25;101403.56;;;13.64
19568;BMP280;9930;49.240;8.548;2023-04-03T15:22:52;101405.25;;;13.64
19568;BMP280;9930;49.240;8.548;2023-04-03T15:25:18;101408.53;;;13.59
19568;BMP280;9930;49.240;8.548;2023-04-03T15:27:44;101403.19;;;13.55
19568;BMP280;9930;49.240;8.548;2023-04-03T15:30:18;101392.81;;;13.52
19568;BMP280;9930;49.240;8.548;2023-04-03T15:32:49;101403.81;;;13.49
19568;BMP280;9930;49.240;8.548;2023-04-03T15:35:15;101389.75;;;13.40
19568;BMP280;9930;49.240;8.548;2023-04-03T15:37:41;101397.44;;;13.40
19568;BMP280;9930;49.240;8.548;2023-04-03T15:40:11;101405.19;;;13.41
19568;BMP280;9930;49.240;8.548;2023-04-03T15:42:37;101401.44;;;13.33
19568;BMP280;9930;49.240;8.548;2023-04-03T15:45:07;101387.50;;;13.26
19568;BMP280;9930;49.240;8.548;2023-04-03T15:47:33;101398.59;;;13.27
19568;BMP280;9930;49.240;8.548;2023-04-03T15:49:59;101390.78;;;13.24
19568;BMP280;9930;49.240;8.548;2023-04-03T15:52:27;101414.84;;;13.27
19568;BMP280;9930;49.240;8.548;2023-04-03T15:54:53;101411.28;;;13.24
19568;BMP280;9930;49.240;8.548;2023-04-03T15:57:19;101388.69;;;13.15
19568;BMP280;9930;49.240;8.548;2023-04-03T15:59:45;101406.03;;;13.21
19568;BMP280;9930;49.240;8.548;2023-04-03T16:02:14;101392.81;;;13.12
19568;BMP280;9930;49.240;8.548;2023-04-03T16:04:40;101402.47;;;13.17
19568;BMP280;9930;49.240;8.548;2023-04-03T16:07:06;101398.94;;;13.15
19568;BMP280;9930;49.240;8.548;2023-04-03T16:09:37;101402.31;;;13.14
19568;BMP280;9930;49.240;8.548;2023-04-03T16:12:07;101393.41;;;13.06